»·PEaware :: N973SE KSBP-KOXR

N973SE :: KSBP-KOXR

FLIGHT INFORMATION

Flight Status: Arrived
Operator: Privately registered:
United States
More flights under this callsign
Pilot: Stig E. (4778)
Aircraft: CESSNA 310
(C310)
More flights by this aircraft type
Origin: KSBP San Luis Co Regl
United States
Destination: KOXR Oxnard
United States
More flights between these airports :: More routes between these airports
Route: MISHI FLW GMN V299 FIM
File this flight plan on PilotEdge
Remarks:
Altitude:
(Current/Filed)
11,500ft
Speed:
(Current/Filed)
170kts
Departed: 24-Jan-19 12:19 AM
Arrived: 24-Jan-19 01:06 AM
Distance/Time
Traveled:
94nm/0:46
Distance/Time
To Go:
Arrived

Flight Plot

Page will automatically refresh every two minutes.

Flight plan parsing failed; only flown route is shown


Map Options




Map Legend


Flown Route
Filed Route
Departure Airport
Arrival Airport
Navaid (VOR, NDB)
Fix

Horizontal Profiles

Position Reports

Time Latitude Longitude Heading Altitude Ground
Speed
24-Jan-19 00:12 35.238241 -120.639983 308 215ft 0kts
24-Jan-19 00:13 35.238241 -120.639983 308 215ft 0kts
24-Jan-19 00:14 35.238241 -120.639983 308 215ft 0kts
24-Jan-19 00:15 35.238388 -120.640231 296 216ft 6kts
24-Jan-19 00:16 35.240475 -120.644648 306 215ft 21kts
24-Jan-19 00:17 35.241401 -120.646877 204 216ft 1kts
24-Jan-19 00:18 35.235086 -120.636721 124 370ft 112kts
24-Jan-19 00:19 35.212008 -120.595776 124 1354ft 159kts
24-Jan-19 00:20 35.185149 -120.552324 130 2355ft 161kts
24-Jan-19 00:21 35.158900 -120.508111 122 3353ft 160kts
24-Jan-19 00:22 35.135696 -120.462625 94 4349ft 156kts
24-Jan-19 00:23 35.131181 -120.409445 88 5346ft 159kts
24-Jan-19 00:24 35.127485 -120.354863 87 6355ft 163kts
24-Jan-19 00:25 35.123651 -120.298220 86 7371ft 169kts
24-Jan-19 00:26 35.119666 -120.239594 86 8391ft 175kts
24-Jan-19 00:27 35.115519 -120.179517 85 9411ft 179kts
24-Jan-19 00:28 35.111277 -120.118269 85 10432ft 182kts
24-Jan-19 00:29 35.107009 -120.055889 84 11439ft 187kts
24-Jan-19 00:30 35.102390 -119.986260 86 11498ft 217kts
24-Jan-19 00:32 35.096167 -119.898749 86 11491ft 223kts
24-Jan-19 00:32 35.085618 -119.836408 101 11487ft 228kts
24-Jan-19 00:33 35.065233 -119.764357 101 11485ft 220kts
24-Jan-19 00:34 35.045287 -119.693975 101 11515ft 218kts
24-Jan-19 00:35 35.025321 -119.623710 101 11548ft 218kts
24-Jan-19 00:36 35.005363 -119.553672 101 11567ft 218kts
24-Jan-19 00:37 34.985288 -119.483405 101 11572ft 219kts
24-Jan-19 00:38 34.965194 -119.413255 101 11575ft 218kts
24-Jan-19 00:39 34.945116 -119.343329 101 11588ft 217kts
24-Jan-19 00:40 34.925071 -119.273707 101 11612ft 216kts
24-Jan-19 00:41 34.905078 -119.204411 101 11614ft 216kts
24-Jan-19 00:42 34.885049 -119.135173 101 11606ft 214kts
24-Jan-19 00:43 34.865138 -119.066492 101 11595ft 214kts
24-Jan-19 00:44 34.845305 -118.998227 101 11573ft 214kts
24-Jan-19 00:45 34.825304 -118.929543 102 10980ft 215kts
24-Jan-19 00:46 34.799974 -118.864856 151 10259ft 227kts
24-Jan-19 00:47 34.738727 -118.863746 182 9585ft 213kts
24-Jan-19 00:48 34.683029 -118.866317 182 9315ft 196kts
24-Jan-19 00:49 34.628628 -118.868742 182 8790ft 195kts
24-Jan-19 00:50 34.573928 -118.871324 183 8093ft 197kts
24-Jan-19 00:51 34.519518 -118.873822 182 7393ft 195kts
24-Jan-19 00:52 34.465758 -118.876212 182 6693ft 192kts
24-Jan-19 00:53 34.413125 -118.878558 182 5989ft 185kts
24-Jan-19 00:54 34.362724 -118.880784 182 5264ft 179kts
24-Jan-19 00:55 34.320370 -118.908950 214 4526ft 174kts
24-Jan-19 00:56 34.279677 -118.940584 213 3727ft 172kts
24-Jan-19 00:57 34.244033 -118.968651 214 3196ft 132kts
24-Jan-19 00:58 34.216108 -118.990511 213 3197ft 111kts
24-Jan-19 00:59 34.199535 -119.017702 270 2984ft 107kts
24-Jan-19 01:00 34.199228 -119.055495 271 2421ft 116kts
24-Jan-19 01:01 34.199577 -119.095053 272 1770ft 115kts
24-Jan-19 01:02 34.199967 -119.132078 273 1166ft 105kts
24-Jan-19 01:03 34.200344 -119.166293 274 625ft 97kts
24-Jan-19 01:04 34.200715 -119.198837 275 89ft 95kts
24-Jan-19 01:05 34.199692 -119.211346 91 36ft 5kts
24-Jan-19 01:06 34.199683 -119.207507 89 39ft 16kts
24-Jan-19 01:07 34.199021 -119.205905 353 40ft 0kts
24-Jan-19 01:08 34.199021 -119.205905 353 40ft 0kts
24-Jan-19 01:09 34.199021 -119.205905 353 40ft 0kts
24-Jan-19 01:10 34.199021 -119.205905 353 40ft 0kts
24-Jan-19 01:11 34.199021 -119.205905 353 40ft 0kts
24-Jan-19 01:12 34.199021 -119.205905 353 40ft 0kts
24-Jan-19 01:13 34.199021 -119.205905 353 40ft 0kts
24-Jan-19 01:14 34.199021 -119.205905 353 40ft 0kts
24-Jan-19 01:15 34.199021 -119.205905 353 40ft 0kts
24-Jan-19 01:16 34.199021 -119.205905 353 40ft 0kts
24-Jan-19 01:17 34.199021 -119.205905 353 40ft 0kts
24-Jan-19 01:18 34.199021 -119.205905 353 40ft 0kts
24-Jan-19 01:19 34.199021 -119.205905 353 40ft 0kts

Navigation Log

Ident Type
Flight plan parsing failed, navigation log unavailable